Time;durP1;ratioP1;P1;durP2;ratioP2;P2;SDS_P1;SDS_P2;PMS_P1;PMS_P2;Temp;Humidity;BMP_temperature;BMP_pressure;BME280_temperature;BME280_humidity;BME280_pressure;Samples;Min_cycle;Max_cycle;Signal;HPM_P1;HPM_P2
2022/08/26 00:01:19;;;;;;;11.05;7.38;;;19.00;99.90;;;;;;5087503;28;20034;-33
2022/08/26 00:03:45;;;;;;;8.57;6.65;;;19.00;99.90;;;;;;5071731;28;20024;-33
2022/08/26 00:06:12;;;;;;;12.70;8.25;;;18.90;99.90;;;;;;5086605;28;20028;-34
2022/08/26 00:08:38;;;;;;;11.13;6.93;;;19.00;99.90;;;;;;5088348;28;20020;-34
2022/08/26 00:11:04;;;;;;;13.68;7.90;;;18.90;99.90;;;;;;5085897;28;20030;-32
2022/08/26 00:13:30;;;;;;;10.63;7.22;;;19.00;99.90;;;;;;5088471;28;20025;-32
2022/08/26 00:15:56;;;;;;;11.15;7.68;;;19.00;99.90;;;;;;5087105;28;20094;-30
2022/08/26 00:18:22;;;;;;;10.77;7.53;;;18.90;99.90;;;;;;5084538;28;20111;-36
2022/08/26 00:20:47;;;;;;;10.50;6.95;;;18.90;99.90;;;;;;5089275;28;20044;-34
2022/08/26 00:23:13;;;;;;;8.15;5.43;;;18.70;99.90;;;;;;5087817;28;20081;-32
2022/08/26 00:25:39;;;;;;;8.32;5.63;;;18.70;99.90;;;;;;5091168;28;20039;-32
2022/08/26 00:28:05;;;;;;;6.53;4.93;;;18.80;99.90;;;;;;5087621;28;20055;-32
2022/08/26 00:30:33;;;;;;;5.00;4.18;;;18.80;99.90;;;;;;5083503;28;20027;-31
2022/08/26 00:33:00;;;;;;;6.38;4.53;;;18.80;99.90;;;;;;5084663;28;20021;-32
2022/08/26 00:35:26;;;;;;;9.48;6.30;;;18.90;99.90;;;;;;5087285;28;20485;-33
2022/08/26 00:37:52;;;;;;;9.45;5.95;;;18.90;99.90;;;;;;5068009;28;20056;-34
2022/08/26 00:40:22;;;;;;;9.10;5.90;;;18.80;99.90;;;;;;5090812;28;20020;-33
2022/08/26 00:42:48;;;;;;;4.45;3.22;;;18.90;99.90;;;;;;5083459;28;20043;-32
2022/08/26 00:45:14;;;;;;;2.25;2.08;;;18.80;99.90;;;;;;5088443;28;20044;-32
2022/08/26 00:47:46;;;;;;;8.20;3.03;;;18.70;99.90;;;;;;5082281;28;20035;-32
2022/08/26 00:50:20;;;;;;;4.28;2.58;;;18.50;99.90;;;;;;5086719;28;20035;-34
2022/08/26 00:52:46;;;;;;;3.20;2.80;;;18.40;99.90;;;;;;5084664;28;20123;-32
2022/08/26 00:55:18;;;;;;;5.47;3.75;;;18.20;99.90;;;;;;5090202;28;20047;-35
2022/08/26 00:57:45;;;;;;;5.93;4.55;;;18.00;99.90;;;;;;5085235;28;20114;-32
2022/08/26 01:00:19;;;;;;;7.00;5.00;;;18.00;99.90;;;;;;5084198;28;20537;-33
2022/08/26 01:02:47;;;;;;;7.70;5.47;;;18.10;99.90;;;;;;5084750;28;20020;-33
2022/08/26 01:05:13;;;;;;;;;;;18.00;99.90;;;;;;5089608;28;20119;-34
2022/08/26 01:07:38;;;;;;;5.25;4.32;;;18.20;99.90;;;;;;5086642;28;20434;-32
2022/08/26 01:10:09;;;;;;;12.25;5.20;;;18.30;99.90;;;;;;5082990;28;20024;-32
2022/08/26 01:12:44;;;;;;;8.15;5.43;;;18.30;99.90;;;;;;5084091;28;20032;-32
2022/08/26 01:15:17;;;;;;;13.02;5.80;;;18.30;99.90;;;;;;5082529;28;20028;-32
2022/08/26 01:17:43;;;;;;;7.82;5.25;;;18.30;99.90;;;;;;5083216;28;20055;-32
2022/08/26 01:20:24;;;;;;;4.65;3.85;;;18.20;99.90;;;;;;5086238;28;20457;-32
2022/08/26 01:23:09;;;;;;;3.00;2.70;;;18.30;99.90;;;;;;5070080;28;20031;-33
2022/08/26 01:25:39;;;;;;;2.80;2.60;;;18.30;99.90;;;;;;5081667;28;21507;-35
2022/08/26 01:28:08;;;;;;;3.03;2.67;;;18.00;99.90;;;;;;5083897;28;20032;-34
2022/08/26 01:30:37;;;;;;;3.35;2.70;;;17.90;99.90;;;;;;5086800;28;20040;-33
2022/08/26 01:33:09;;;;;;;7.00;4.30;;;17.80;99.90;;;;;;5078579;28;20396;-33
2022/08/26 01:35:36;;;;;;;6.82;5.07;;;17.80;99.90;;;;;;5084689;28;20027;-32
2022/08/26 01:38:03;;;;;;;6.03;4.07;;;17.80;99.90;;;;;;5083074;28;20059;-32
2022/08/26 01:40:32;;;;;;;7.88;4.35;;;17.80;99.90;;;;;;5066775;28;20619;-32
2022/08/26 01:43:01;;;;;;;7.90;5.22;;;17.80;99.90;;;;;;5068428;28;20042;-33
2022/08/26 01:45:30;;;;;;;8.00;5.28;;;17.70;99.90;;;;;;5058202;28;20098;-31
2022/08/26 01:47:59;;;;;;;6.25;4.40;;;17.70;99.90;;;;;;5085619;28;20666;-32
2022/08/26 01:50:27;;;;;;;;;;;17.80;99.90;;;;;;5088919;28;20093;-31
2022/08/26 01:52:54;;;;;;;8.85;5.85;;;17.80;99.90;;;;;;5084058;28;19994;-33
2022/08/26 01:55:22;;;;;;;11.00;6.20;;;17.90;99.90;;;;;;5089682;28;20035;-32
2022/08/26 01:57:52;;;;;;;11.50;8.02;;;17.90;99.90;;;;;;5082946;28;20161;-32
2022/08/26 02:00:18;;;;;;;12.93;7.97;;;17.90;99.90;;;;;;5079607;28;20111;-32
2022/08/26 02:02:48;;;;;;;11.55;6.82;;;17.80;99.90;;;;;;5087592;28;20115;-38
2022/08/26 02:05:19;;;;;;;10.57;6.82;;;17.80;99.90;;;;;;5089840;28;20111;-33
2022/08/26 02:07:46;;;;;;;9.75;5.97;;;17.90;99.90;;;;;;5086211;28;20040;-34
2022/08/26 02:10:13;;;;;;;8.93;6.00;;;17.90;99.90;;;;;;5081703;28;20028;-34
2022/08/26 02:12:39;;;;;;;12.63;7.45;;;17.90;99.90;;;;;;5087727;28;20028;-32
2022/08/26 02:15:09;;;;;;;9.68;5.68;;;17.70;99.90;;;;;;5082047;28;20031;-31
2022/08/26 02:17:46;;;;;;;4.68;4.13;;;17.60;99.90;;;;;;5088807;28;20058;-32
2022/08/26 02:20:16;;;;;;;5.38;4.75;;;17.60;99.90;;;;;;5079026;28;20125;-35
2022/08/26 02:22:43;;;;;;;10.32;6.03;;;17.70;99.90;;;;;;5087562;28;20068;-35
2022/08/26 02:25:30;;;;;;;8.93;6.30;;;17.60;99.90;;;;;;5086226;28;20135;-32
2022/08/26 02:27:56;;;;;;;10.88;7.07;;;17.40;99.90;;;;;;5081562;28;20423;-31
2022/08/26 02:30:25;;;;;;;9.70;6.30;;;17.20;99.90;;;;;;5082106;28;20020;-32
2022/08/26 02:32:51;;;;;;;11.32;7.13;;;17.20;99.90;;;;;;5083362;28;20393;-32
2022/08/26 02:35:19;;;;;;;10.52;6.55;;;17.10;99.90;;;;;;5080330;28;20016;-32
2022/08/26 02:37:45;;;;;;;7.88;5.90;;;17.00;99.90;;;;;;5067283;28;20024;-33
2022/08/26 02:40:13;;;;;;;11.05;6.53;;;17.10;99.90;;;;;;5084966;28;20032;-32
2022/08/26 02:42:39;;;;;;;;;;;17.10;99.90;;;;;;5084536;28;20028;-35
2022/08/26 02:45:06;;;;;;;10.35;6.70;;;17.10;99.90;;;;;;5057853;28;19912;-31
2022/08/26 02:47:33;;;;;;;8.25;5.57;;;17.10;99.90;;;;;;5086590;28;20051;-32
2022/08/26 02:49:59;;;;;;;6.03;5.38;;;17.00;99.90;;;;;;5084089;28;20024;-32
2022/08/26 02:52:25;;;;;;;10.88;6.15;;;17.10;99.90;;;;;;5079879;28;20426;-32
2022/08/26 02:54:51;;;;;;;9.32;6.57;;;17.20;99.90;;;;;;5089448;28;20031;-30
2022/08/26 02:57:18;;;;;;;13.10;7.03;;;17.10;99.90;;;;;;5085290;28;20031;-31
2022/08/26 02:59:44;;;;;;;10.43;7.70;;;17.00;99.90;;;;;;5066130;28;20058;-31
2022/08/26 03:02:10;;;;;;;11.05;6.80;;;17.00;99.90;;;;;;5081985;28;20048;-31
2022/08/26 03:04:37;;;;;;;10.32;6.50;;;17.10;99.90;;;;;;5080376;28;20020;-33
2022/08/26 03:07:04;;;;;;;5.93;4.90;;;17.20;99.90;;;;;;5076065;28;20043;-31
2022/08/26 03:09:30;;;;;;;5.03;4.53;;;17.10;99.90;;;;;;5093018;28;20055;-31
2022/08/26 03:11:56;;;;;;;5.18;3.95;;;17.20;99.90;;;;;;5081313;28;20066;-32
2022/08/26 03:14:22;;;;;;;7.32;5.10;;;17.20;99.90;;;;;;5086905;28;20123;-33
2022/08/26 03:16:50;;;;;;;8.40;5.93;;;17.30;99.90;;;;;;5091491;28;20020;-38
2022/08/26 03:19:17;;;;;;;9.00;6.13;;;17.10;99.90;;;;;;5088456;28;20047;-31
2022/08/26 03:21:43;;;;;;;6.70;4.82;;;17.00;99.90;;;;;;5089954;28;20028;-31
2022/08/26 03:24:10;;;;;;;5.00;3.47;;;17.00;99.90;;;;;;5067296;28;20032;-32
2022/08/26 03:26:35;;;;;;;5.28;4.18;;;16.50;99.90;;;;;;5091072;28;20046;-34
2022/08/26 03:31:45;;;;;;;7.45;4.80;;;16.30;99.90;;;;;;5083968;28;20077;-33
2022/08/26 03:34:11;;;;;;;9.10;5.88;;;16.30;99.90;;;;;;5083782;28;20036;-32
2022/08/26 03:36:37;;;;;;;8.73;4.93;;;16.40;99.90;;;;;;5087615;28;20025;-31
2022/08/26 03:39:03;;;;;;;7.45;5.22;;;16.50;99.90;;;;;;5085874;28;20028;-32
2022/08/26 03:41:31;;;;;;;7.88;5.28;;;16.70;99.90;;;;;;5087419;28;20021;-33
2022/08/26 03:43:57;;;;;;;10.73;5.90;;;16.70;99.90;;;;;;5091848;28;20024;-31
2022/08/26 03:46:22;;;;;;;9.45;7.03;;;16.80;99.90;;;;;;5087996;28;20442;-32
2022/08/26 03:48:48;;;;;;;13.05;6.60;;;16.90;99.90;;;;;;5086764;28;20535;-32
2022/08/26 03:51:17;;;;;;;8.02;6.07;;;16.90;99.90;;;;;;5085204;28;20032;-32
2022/08/26 03:53:43;;;;;;;8.73;6.85;;;17.00;99.90;;;;;;5088409;28;20028;-32
2022/08/26 03:56:09;;;;;;;9.82;6.85;;;17.00;99.90;;;;;;5082540;28;20036;-33
2022/08/26 03:58:36;;;;;;;9.57;6.20;;;17.00;99.90;;;;;;5087963;28;20031;-32
2022/08/26 04:01:02;;;;;;;7.97;5.90;;;17.00;99.90;;;;;;5080033;28;20036;-33
2022/08/26 04:06:12;;;;;;;4.10;3.70;;;16.90;99.90;;;;;;5085066;28;20043;-32
2022/08/26 04:08:38;;;;;;;4.82;4.22;;;16.60;99.90;;;;;;5085725;28;20028;-32
2022/08/26 04:11:04;;;;;;;4.93;4.28;;;16.60;99.90;;;;;;5083290;28;20031;-34
2022/08/26 04:13:31;;;;;;;7.72;5.30;;;16.70;99.90;;;;;;5079062;28;20035;-32
2022/08/26 04:15:56;;;;;;;7.47;5.10;;;16.70;99.90;;;;;;5090097;28;20477;-35
2022/08/26 04:18:22;;;;;;;6.35;5.18;;;16.70;99.90;;;;;;5089037;28;20031;-34
2022/08/26 04:20:49;;;;;;;7.32;5.03;;;16.80;99.90;;;;;;5066745;28;20036;-32
2022/08/26 04:23:15;;;;;;;7.75;5.38;;;16.90;99.90;;;;;;5084476;28;20020;-32
2022/08/26 04:25:42;;;;;;;12.60;6.90;;;16.90;99.90;;;;;;5086852;28;20028;-32
2022/08/26 04:28:07;;;;;;;9.52;6.88;;;16.80;99.90;;;;;;5083674;28;20073;-33
2022/08/26 04:30:37;;;;;;;13.77;7.35;;;16.90;99.90;;;;;;5090801;28;20024;-32
2022/08/26 04:33:03;;;;;;;10.68;6.95;;;16.70;99.90;;;;;;5085961;28;20031;-32
2022/08/26 04:35:29;;;;;;;10.63;7.70;;;16.70;99.90;;;;;;5091120;28;20035;-32
2022/08/26 04:37:55;;;;;;;12.52;8.00;;;16.60;99.90;;;;;;5076768;28;20355;-32
2022/08/26 04:40:21;;;;;;;13.60;7.10;;;16.50;99.90;;;;;;5089648;28;20027;-35
2022/08/26 04:42:47;;;;;;;9.88;6.60;;;16.60;99.90;;;;;;5087706;28;20032;-31
2022/08/26 04:45:13;;;;;;;12.70;7.20;;;16.60;99.90;;;;;;5085586;28;20028;-34
2022/08/26 04:47:39;;;;;;;10.32;6.75;;;16.70;99.90;;;;;;5088719;28;20028;-33
2022/08/26 04:50:05;;;;;;;11.38;6.68;;;16.60;99.90;;;;;;5086867;28;20043;-32
2022/08/26 04:52:32;;;;;;;6.88;5.05;;;16.40;99.90;;;;;;5089704;28;20381;-32
2022/08/26 04:54:58;;;;;;;5.95;4.90;;;16.10;99.90;;;;;;5080785;28;20034;-32
2022/08/26 04:57:24;;;;;;;5.07;4.45;;;16.00;99.90;;;;;;5064398;28;20032;-31
2022/08/26 04:59:49;;;;;;;6.38;4.78;;;15.80;99.90;;;;;;5090683;28;20032;-32
2022/08/26 05:02:15;;;;;;;6.82;5.38;;;15.80;99.90;;;;;;5086813;28;20036;-32
2022/08/26 05:04:42;;;;;;;5.70;4.85;;;15.80;99.90;;;;;;5080651;28;20023;-34
2022/08/26 05:07:09;;;;;;;6.80;5.13;;;15.80;99.90;;;;;;5084252;28;20043;-34
2022/08/26 05:09:36;;;;;;;8.65;5.85;;;15.70;99.90;;;;;;5083898;28;20043;-33
2022/08/26 05:12:02;;;;;;;12.20;6.88;;;15.80;99.90;;;;;;5088211;28;20042;-32
2022/08/26 05:14:27;;;;;;;10.25;6.53;;;16.00;99.90;;;;;;5085835;28;20036;-32
2022/08/26 05:16:53;;;;;;;9.77;6.95;;;16.00;99.90;;;;;;5089435;28;20024;-32
2022/08/26 05:19:19;;;;;;;9.65;6.68;;;16.10;99.90;;;;;;5088303;28;20054;-32
2022/08/26 05:21:45;;;;;;;8.68;6.82;;;16.20;99.90;;;;;;5081573;28;20024;-32
2022/08/26 05:24:11;;;;;;;9.50;6.32;;;16.20;99.90;;;;;;5083860;28;20163;-31
2022/08/26 05:26:37;;;;;;;8.75;6.47;;;16.10;99.90;;;;;;5090199;28;20411;-32
2022/08/26 05:29:04;;;;;;;10.68;6.53;;;16.00;99.90;;;;;;5085611;28;20036;-32
2022/08/26 05:31:32;;;;;;;9.15;7.07;;;16.00;99.90;;;;;;5063631;28;20035;-35
2022/08/26 05:33:59;;;;;;;12.38;6.63;;;16.20;99.90;;;;;;5090058;28;20528;-32
2022/08/26 05:36:28;;;;;;;10.73;7.18;;;16.40;99.90;;;;;;5082052;28;20020;-33
2022/08/26 05:38:54;;;;;;;10.15;6.97;;;16.50;99.90;;;;;;5087999;28;20120;-32
2022/08/26 05:41:27;;;;;;;11.30;6.70;;;16.60;99.90;;;;;;5070155;28;20111;-31
2022/08/26 05:43:54;;;;;;;12.15;7.32;;;16.80;99.90;;;;;;5086994;28;20032;-31
2022/08/26 05:46:20;;;;;;;9.32;6.90;;;16.80;99.90;;;;;;5089515;28;20027;-31
2022/08/26 05:48:46;;;;;;;12.77;8.80;;;16.90;99.90;;;;;;5086396;28;20119;-33
2022/08/26 05:51:12;;;;;;;12.60;7.93;;;17.00;99.90;;;;;;5088276;28;20032;-31
2022/08/26 05:53:39;;;;;;;13.00;8.50;;;17.00;99.90;;;;;;5062624;28;20012;-33
2022/08/26 05:56:07;;;;;;;15.23;7.40;;;16.90;99.90;;;;;;5066511;28;20032;-32
2022/08/26 05:58:33;;;;;;;9.73;7.13;;;16.80;99.90;;;;;;5086416;28;20017;-32
2022/08/26 06:01:11;;;;;;;12.82;6.80;;;16.90;99.90;;;;;;5083479;28;20032;-32
2022/08/26 06:03:39;;;;;;;9.73;6.68;;;17.10;99.90;;;;;;5089459;28;20024;-33
2022/08/26 06:06:16;;;;;;;11.15;7.18;;;17.10;99.90;;;;;;5082264;28;20032;-31
2022/08/26 06:08:42;;;;;;;13.35;8.07;;;17.30;99.90;;;;;;5084122;28;20035;-32
2022/08/26 06:11:10;;;;;;;13.25;7.85;;;17.30;99.90;;;;;;5081421;28;20135;-32
2022/08/26 06:13:37;;;;;;;12.02;8.65;;;17.40;99.90;;;;;;5084184;28;20441;-32
2022/08/26 06:16:06;;;;;;;16.42;9.15;;;17.30;99.90;;;;;;5087940;28;20039;-34
2022/08/26 06:18:35;;;;;;;16.63;9.48;;;17.20;99.90;;;;;;5087505;28;20078;-33
2022/08/26 06:21:15;;;;;;;15.07;8.93;;;17.20;99.90;;;;;;5084386;28;20075;-33
2022/08/26 06:26:26;;;;;;;15.23;9.65;;;17.50;99.90;;;;;;5088136;28;20043;-36
2022/08/26 06:28:51;;;;;;;17.17;10.50;;;17.60;99.90;;;;;;5080843;28;20039;-31
2022/08/26 06:31:17;;;;;;;17.27;10.82;;;17.70;99.90;;;;;;5088490;28;20052;-32
2022/08/26 06:33:43;;;;;;;17.13;10.55;;;17.90;99.90;;;;;;5085895;28;20097;-31
2022/08/26 06:36:18;;;;;;;20.00;11.45;;;18.00;99.90;;;;;;5088347;28;20032;-31
2022/08/26 06:38:45;;;;;;;18.40;10.70;;;18.00;99.90;;;;;;5060034;28;20028;-33
2022/08/26 06:41:11;;;;;;;17.20;10.38;;;18.10;99.90;;;;;;5083523;28;20039;-31
2022/08/26 06:43:37;;;;;;;20.90;10.93;;;18.30;99.90;;;;;;5088935;28;20028;-31
2022/08/26 06:46:06;;;;;;;22.48;12.15;;;18.40;99.90;;;;;;5089779;28;20605;-32
2022/08/26 06:48:32;;;;;;;19.75;11.48;;;18.60;99.90;;;;;;5083213;28;20040;-31
2022/08/26 06:51:07;;;;;;;21.17;11.85;;;18.80;99.90;;;;;;5093672;28;20028;-32
2022/08/26 06:53:33;;;;;;;24.85;12.57;;;18.90;99.90;;;;;;5090966;28;20024;-32
2022/08/26 06:56:06;;;;;;;17.42;11.40;;;18.80;99.90;;;;;;5090013;28;20036;-32
2022/08/26 06:58:33;;;;;;;23.52;12.77;;;18.90;99.90;;;;;;5088561;28;20028;-31
2022/08/26 07:00:59;;;;;;;18.95;11.27;;;18.90;99.90;;;;;;5089732;28;20034;-32
2022/08/26 07:03:24;;;;;;;19.40;12.18;;;18.90;99.90;;;;;;5088869;28;20103;-32
2022/08/26 07:05:50;;;;;;;20.67;11.88;;;19.00;99.90;;;;;;5090937;28;20495;-31
2022/08/26 07:08:16;;;;;;;18.90;11.30;;;19.20;99.90;;;;;;5092246;28;20469;-34
2022/08/26 07:10:42;;;;;;;18.88;11.32;;;19.40;99.90;;;;;;5087738;28;20094;-33
2022/08/26 07:13:09;;;;;;;17.33;11.40;;;19.60;99.90;;;;;;5068712;28;20050;-31
2022/08/26 07:15:39;;;;;;;17.77;11.77;;;19.70;99.90;;;;;;5083924;28;20041;-30
2022/08/26 07:18:07;;;;;;;18.23;11.68;;;19.80;99.90;;;;;;5088335;28;20028;-32
2022/08/26 07:20:38;;;;;;;17.75;11.70;;;19.80;99.90;;;;;;5091138;28;20440;-32
2022/08/26 07:23:05;;;;;;;20.60;11.20;;;19.80;99.90;;;;;;5090216;28;20032;-31
2022/08/26 07:25:30;;;;;;;19.23;11.75;;;19.70;99.90;;;;;;5092997;28;20072;-32
2022/08/26 07:27:56;;;;;;;18.95;11.50;;;19.60;99.90;;;;;;5087976;28;20063;-31
2022/08/26 07:30:22;;;;;;;19.20;11.38;;;19.80;99.90;;;;;;5082393;28;20059;-32
2022/08/26 07:32:48;;;;;;;17.95;11.43;;;19.90;99.90;;;;;;5074463;28;20028;-32
2022/08/26 07:35:14;;;;;;;18.95;11.73;;;20.00;99.90;;;;;;5085132;28;20028;-31
2022/08/26 07:37:39;;;;;;;16.60;11.10;;;20.10;99.90;;;;;;5093069;28;20408;-33
2022/08/26 07:40:06;;;;;;;17.60;12.30;;;20.20;99.90;;;;;;5088339;28;20051;-32
2022/08/26 07:42:33;;;;;;;20.67;13.20;;;20.20;99.90;;;;;;5090122;28;20062;-34
2022/08/26 07:44:58;;;;;;;14.82;11.05;;;20.30;99.90;;;;;;5085927;28;20024;-31
2022/08/26 07:47:24;;;;;;;20.40;11.20;;;20.30;99.90;;;;;;5081512;28;20025;-31
2022/08/26 07:49:50;;;;;;;17.58;10.80;;;20.50;99.90;;;;;;5087453;28;20032;-34
2022/08/26 07:52:15;;;;;;;19.50;12.85;;;20.50;99.90;;;;;;5061447;28;20032;-31
2022/08/26 07:54:41;;;;;;;18.92;12.57;;;20.60;99.90;;;;;;5084783;28;20385;-31
2022/08/26 07:57:07;;;;;;;18.33;12.43;;;20.50;99.90;;;;;;5085193;28;20032;-32
2022/08/26 07:59:32;;;;;;;17.30;11.30;;;20.50;99.90;;;;;;5091518;28;20032;-32
2022/08/26 08:01:59;;;;;;;19.88;12.68;;;20.60;99.90;;;;;;5085479;28;20035;-31
2022/08/26 08:04:25;;;;;;;18.42;11.60;;;20.70;99.90;;;;;;5088017;28;20056;-31
2022/08/26 08:06:50;;;;;;;20.45;11.95;;;20.80;99.90;;;;;;5089290;28;20060;-32
2022/08/26 08:09:16;;;;;;;19.25;11.65;;;21.10;99.90;;;;;;5086845;28;20032;-32
2022/08/26 08:11:43;;;;;;;16.75;11.43;;;21.10;99.90;;;;;;5088300;28;20380;-31
2022/08/26 08:14:09;;;;;;;18.90;10.20;;;21.20;99.90;;;;;;5072792;28;20028;-32
2022/08/26 08:16:35;;;;;;;20.08;11.80;;;21.30;99.90;;;;;;5089151;28;20389;-33
2022/08/26 08:19:01;;;;;;;22.63;12.32;;;21.40;99.90;;;;;;5085995;28;20032;-31
2022/08/26 08:21:27;;;;;;;18.83;12.68;;;21.20;99.90;;;;;;5084405;28;20028;-34
2022/08/26 08:23:54;;;;;;;22.27;12.80;;;21.10;99.90;;;;;;5089677;28;20356;-31
2022/08/26 08:26:21;;;;;;;16.67;10.48;;;21.10;99.90;;;;;;5087171;28;20034;-31
2022/08/26 08:28:47;;;;;;;22.95;13.25;;;21.10;99.90;;;;;;5090214;28;20431;-32
2022/08/26 08:31:24;;;;;;;19.88;11.70;;;21.20;99.90;;;;;;5089128;28;20030;-31
2022/08/26 08:33:50;;;;;;;19.85;10.85;;;21.20;99.90;;;;;;5088988;28;20404;-31
2022/08/26 08:36:16;;;;;;;15.48;10.32;;;21.40;99.90;;;;;;5087828;28;20032;-32
2022/08/26 08:38:43;;;;;;;17.60;11.00;;;21.50;99.90;;;;;;5091266;28;20419;-36
2022/08/26 08:41:30;;;;;;;20.63;12.68;;;21.70;99.90;;;;;;5087179;28;20028;-31
2022/08/26 08:43:59;;;;;;;18.83;11.77;;;21.60;99.90;;;;;;5087391;28;20057;-32
2022/08/26 08:46:24;;;;;;;18.85;11.48;;;21.70;99.90;;;;;;5091185;28;20058;-33
2022/08/26 08:48:55;;;;;;;19.95;11.75;;;22.00;99.90;;;;;;5083738;28;20052;-32
2022/08/26 08:51:46;;;;;;;18.10;11.10;;;22.20;99.90;;;;;;5088527;28;20473;-32
2022/08/26 08:54:12;;;;;;;23.85;11.32;;;22.40;99.90;;;;;;5089618;28;20638;-31
2022/08/26 08:56:51;;;;;;;16.27;10.55;;;22.80;99.90;;;;;;5089718;28;20047;-31
2022/08/26 08:59:22;;;;;;;16.85;11.20;;;23.00;99.90;;;;;;5091084;28;20028;-31
2022/08/26 09:01:59;;;;;;;15.65;9.98;;;23.20;99.90;;;;;;5089660;28;20054;-32
2022/08/26 09:05:09;;;;;;;14.23;10.75;;;23.60;99.90;;;;;;5085428;28;20028;-31
2022/08/26 09:07:39;;;;;;;16.35;10.77;;;24.20;99.90;;;;;;5086426;28;20032;-31
2022/08/26 09:10:05;;;;;;;17.08;9.38;;;24.70;99.90;;;;;;5091304;28;20028;-31
2022/08/26 09:12:33;;;;;;;14.18;10.02;;;25.00;99.90;;;;;;5089641;28;20032;-31
2022/08/26 09:15:14;;;;;;;17.77;10.80;;;25.30;99.90;;;;;;5090924;28;20089;-36
2022/08/26 09:18:08;;;;;;;12.50;8.95;;;25.40;99.90;;;;;;5087183;28;20570;-31
2022/08/26 09:21:04;;;;;;;16.50;9.77;;;25.60;99.90;;;;;;5087990;28;20051;-32
2022/08/26 09:23:31;;;;;;;13.30;9.57;;;25.80;99.90;;;;;;5064374;28;20040;-31
2022/08/26 09:26:02;;;;;;;15.05;9.40;;;25.50;99.90;;;;;;5092332;28;20039;-32
2022/08/26 09:28:29;;;;;;;18.42;8.95;;;25.90;99.90;;;;;;5091907;28;20032;-34
2022/08/26 09:31:23;;;;;;;15.05;9.65;;;26.20;99.90;;;;;;5087976;28;20036;-31
2022/08/26 09:34:20;;;;;;;12.07;9.27;;;26.30;98.80;;;;;;5090052;28;20024;-32
2022/08/26 09:36:47;;;;;;;15.25;9.20;;;25.40;99.90;;;;;;5082583;28;20025;-31
2022/08/26 09:39:36;;;;;;;;;;;25.70;99.90;;;;;;5090185;28;20111;-31
2022/08/26 09:42:23;;;;;;;12.88;7.95;;;26.20;99.90;;;;;;5080075;28;19915;-32
2022/08/26 09:45:02;;;;;;;13.98;7.80;;;26.60;96.60;;;;;;5089826;28;20568;-32
2022/08/26 09:47:30;;;;;;;9.98;7.80;;;26.20;98.30;;;;;;5089305;28;20034;-32
2022/08/26 09:50:17;;;;;;;11.85;8.32;;;26.20;97.90;;;;;;5083016;28;20030;-31
2022/08/26 09:52:43;;;;;;;9.82;7.15;;;26.10;97.90;;;;;;5064792;28;20123;-31
2022/08/26 09:55:08;;;;;;;11.10;8.07;;;26.70;98.20;;;;;;5085346;28;20446;-32
2022/08/26 09:57:50;;;;;;;9.57;7.18;;;26.50;96.50;;;;;;5086944;28;20369;-31
2022/08/26 10:00:42;;;;;;;12.20;7.45;;;26.50;94.30;;;;;;5073092;28;20560;-32
2022/08/26 10:03:28;;;;;;;10.38;7.30;;;26.40;96.20;;;;;;5086586;28;20562;-32
2022/08/26 10:06:04;;;;;;;8.52;7.18;;;26.40;93.80;;;;;;5085836;28;21557;-33
2022/08/26 10:08:36;;;;;;;9.88;7.63;;;26.40;95.90;;;;;;5083618;28;20074;-32
2022/08/26 10:11:14;;;;;;;10.77;7.20;;;26.40;92.90;;;;;;5087367;28;20053;-32
2022/08/26 10:13:47;;;;;;;11.90;7.07;;;26.40;94.60;;;;;;5085587;28;20032;-32
2022/08/26 10:16:20;;;;;;;10.38;6.82;;;26.50;94.60;;;;;;5088643;28;20442;-35
2022/08/26 10:19:17;;;;;;;9.05;7.28;;;26.60;93.50;;;;;;5087273;28;20024;-32
2022/08/26 10:21:52;;;;;;;8.73;5.60;;;26.30;93.00;;;;;;5086033;28;20115;-32
2022/08/26 10:24:25;;;;;;;8.27;5.18;;;26.00;90.20;;;;;;5086156;28;20024;-36
2022/08/26 10:27:09;;;;;;;7.93;4.97;;;25.60;85.70;;;;;;5084654;28;20020;-32
2022/08/26 10:29:42;;;;;;;13.77;6.57;;;25.20;86.50;;;;;;5089122;28;20260;-31
2022/08/26 10:32:17;;;;;;;13.25;8.23;;;25.10;94.00;;;;;;5082472;28;20052;-32
2022/08/26 10:34:43;;;;;;;15.13;8.15;;;24.80;99.20;;;;;;5082133;28;20028;-32
2022/08/26 10:37:17;;;;;;;12.48;8.40;;;24.70;99.90;;;;;;5081830;28;20024;-31
2022/08/26 10:39:49;;;;;;;13.13;7.97;;;24.50;99.90;;;;;;5087865;28;20028;-31
2022/08/26 10:42:38;;;;;;;13.82;7.45;;;24.40;99.90;;;;;;5088905;28;20031;-31
2022/08/26 10:45:12;;;;;;;13.05;7.65;;;24.50;99.90;;;;;;5082988;28;20032;-34
2022/08/26 10:47:53;;;;;;;11.50;7.32;;;24.70;99.60;;;;;;5089757;28;20033;-31
2022/08/26 10:50:21;;;;;;;15.07;8.50;;;24.70;98.70;;;;;;5090717;28;20035;-33
2022/08/26 10:53:02;;;;;;;12.27;8.52;;;24.60;99.90;;;;;;5086157;28;20032;-32
2022/08/26 10:55:28;;;;;;;12.18;8.20;;;24.50;99.90;;;;;;5087369;28;20388;-32
2022/08/26 10:58:15;;;;;;;12.13;8.20;;;24.50;99.90;;;;;;5089477;28;20020;-32
2022/08/26 11:04:11;;;;;;;12.13;7.50;;;24.40;99.90;;;;;;5080713;28;20293;-33
2022/08/26 11:06:37;;;;;;;11.73;7.78;;;24.50;99.90;;;;;;5086369;28;20036;-37
2022/08/26 11:09:07;;;;;;;15.70;8.23;;;24.60;99.90;;;;;;5082545;28;20515;-32
2022/08/26 11:11:38;;;;;;;11.70;7.03;;;24.70;99.80;;;;;;5087904;28;20035;-37
2022/08/26 11:14:20;;;;;;;12.75;7.70;;;24.70;96.80;;;;;;5087761;28;20028;-37
2022/08/26 11:16:53;;;;;;;11.90;7.88;;;24.80;98.70;;;;;;5087610;28;20024;-32
2022/08/26 11:19:37;;;;;;;9.95;6.57;;;25.20;97.80;;;;;;5078913;28;20048;-32
2022/08/26 11:22:26;;;;;;;10.13;7.97;;;25.70;96.40;;;;;;5089324;28;20024;-32
2022/08/26 11:24:55;;;;;;;12.32;7.70;;;25.70;93.70;;;;;;5088906;28;20024;-32
2022/08/26 11:27:35;;;;;;;10.88;7.10;;;26.00;93.90;;;;;;5088192;28;20392;-32
2022/08/26 11:30:16;;;;;;;9.75;7.03;;;26.40;92.30;;;;;;5086649;28;20032;-32
2022/08/26 11:32:42;;;;;;;11.38;6.03;;;26.60;90.10;;;;;;5090833;28;20514;-32
2022/08/26 11:35:12;;;;;;;10.80;6.70;;;26.70;84.20;;;;;;5089286;28;20087;-34
2022/08/26 11:37:49;;;;;;;7.55;5.82;;;26.90;85.10;;;;;;5091339;28;20103;-32
2022/08/26 11:40:23;;;;;;;10.35;5.70;;;27.20;84.70;;;;;;5091625;28;20038;-32
2022/08/26 11:42:54;;;;;;;7.22;5.50;;;27.60;80.90;;;;;;5092571;28;20111;-34
2022/08/26 11:45:43;;;;;;;6.75;4.88;;;27.60;76.40;;;;;;5088681;28;20059;-32
2022/08/26 11:48:17;;;;;;;7.18;5.70;;;27.80;72.50;;;;;;5089291;28;20030;-32
2022/08/26 11:50:56;;;;;;;8.07;6.20;;;27.60;73.40;;;;;;5093041;28;20114;-32
2022/08/26 11:53:24;;;;;;;9.60;5.63;;;27.70;74.10;;;;;;5088183;28;20047;-33
2022/08/26 11:55:51;;;;;;;;;;;27.70;79.80;;;;;;5091260;28;20024;-32
2022/08/26 11:58:18;;;;;;;;;;;27.80;78.60;;;;;;5091428;28;19918;-33
2022/08/26 12:01:05;;;;;;;10.20;5.60;;;27.80;71.40;;;;;;5084606;28;19935;-32
2022/08/26 12:03:47;;;;;;;5.95;3.92;;;27.50;70.00;;;;;;5085726;28;20091;-33
2022/08/26 12:06:26;;;;;;;8.65;5.88;;;27.40;59.40;;;;;;5086075;28;20646;-33
2022/08/26 12:08:55;;;;;;;6.50;4.30;;;27.40;65.60;;;;;;5091005;28;20024;-31
2022/08/26 12:11:28;;;;;;;9.35;4.60;;;27.40;66.30;;;;;;5092735;28;20043;-32
2022/08/26 12:13:58;;;;;;;6.75;4.45;;;27.50;66.30;;;;;;5091828;28;20020;-33
2022/08/26 12:16:36;;;;;;;7.82;4.97;;;27.40;63.40;;;;;;5089585;28;20105;-32
2022/08/26 12:19:23;;;;;;;6.85;4.25;;;27.30;65.50;;;;;;5088762;28;20059;-32
2022/08/26 12:21:49;;;;;;;;;;;27.20;66.70;;;;;;5089233;28;20119;-33
2022/08/26 12:24:19;;;;;;;10.98;5.32;;;27.20;67.10;;;;;;5089164;28;20007;-32
2022/08/26 12:26:45;;;;;;;7.85;4.93;;;27.30;64.50;;;;;;5069383;28;20027;-33
2022/08/26 12:29:26;;;;;;;8.93;4.82;;;27.40;68.80;;;;;;5090509;28;20039;-33
2022/08/26 12:32:23;;;;;;;8.00;4.32;;;27.50;67.60;;;;;;5083396;28;20030;-35
2022/08/26 12:34:49;;;;;;;7.88;4.70;;;27.50;62.90;;;;;;5083053;28;20119;-33
2022/08/26 12:37:15;;;;;;;6.22;4.57;;;27.50;62.10;;;;;;5091308;28;20146;-32
2022/08/26 12:39:43;;;;;;;7.45;4.38;;;27.20;58.90;;;;;;5086600;28;20510;-33
2022/08/26 12:42:11;;;;;;;8.55;4.50;;;27.20;62.10;;;;;;5086788;28;20031;-32
2022/08/26 12:44:43;;;;;;;9.68;4.50;;;27.30;61.60;;;;;;5086358;28;20502;-32
2022/08/26 12:47:15;;;;;;;9.15;4.15;;;27.50;62.90;;;;;;5083212;28;20428;-37
2022/08/26 12:49:42;;;;;;;6.13;4.43;;;27.30;62.50;;;;;;5082096;28;20036;-33
2022/08/26 12:52:28;;;;;;;5.22;3.88;;;27.30;62.80;;;;;;5059693;28;20496;-31
2022/08/26 12:55:04;;;;;;;7.03;4.13;;;27.50;59.40;;;;;;5087910;28;20595;-32
2022/08/26 12:57:36;;;;;;;7.75;4.88;;;27.70;62.10;;;;;;5083407;28;20044;-34
2022/08/26 13:00:23;;;;;;;7.97;4.60;;;27.70;58.10;;;;;;5091884;28;20555;-32
2022/08/26 13:02:50;;;;;;;5.53;4.35;;;27.50;58.50;;;;;;5091514;28;20100;-33
2022/08/26 13:05:25;;;;;;;6.78;4.40;;;27.50;62.60;;;;;;5091209;28;21415;-32
2022/08/26 13:08:36;;;;;;;9.77;4.68;;;27.70;63.20;;;;;;5091191;28;20495;-33